PWSweather.com
Personal Weather Stations
Station Observations
GEELONGWX1
Bell Post Hill, GeelongAU

Bell Post HillGeelongAU

Lat: -38.101, Lon: 144.326

Elevation: 204

Station Type: Davis Vantage Pro2

http://www.geelongweather.com

Latest ConditionsUpdated 7:40:01 AM GMT+10:10 Sunday, Apr 26, 2015
Currently Today's Max Today's Min Today's Average
Temperature 48.6°F9.2°C 51.6°F10.9°C 48.6°F9.2°C 50.2°F10.1°C
Dew Point 42.4°F5.8°C 45.8°F7.7°C 42.4°F5.8°C 44.1°F6.7°C
Winds 1.2 mph SW1.9 kmh SW 6.9 mph S11.1 kmh S - 2.0 mph 3.2 kmh
Wind Gusts -- 11.5 mph18.5 kmh - -
Humidity 79% 81% 79% 80%
Pressure 30.15 in1021.0 mb 30.15 in1021.0 mb 30.06 in1017.9 mb -
Precipitation - 0.02 in0.5 mm - -
Hour Temp Dew Point Humidity Winds Wind Gusts Pressure Precip Precip Rate Daily Precip Total
07:40 AM 48.6°F9.2°C 42.4°F5.8°C 79% 1.2 mph SW1.9 kmh SW -- 30.15 in1021.0 mb - 0.00 in0.0 mm 0.02 in0.5 mm
07:30 AM 48.6°F9.2°C 42.4°F5.8°C 79% Calm Calm -- 30.15 in1021.0 mb - 0.00 in0.0 mm 0.02 in0.5 mm
07:20 AM 48.7°F9.3°C 42.5°F5.8°C 79% 1.2 mph SSW1.9 kmh SSW 4.6 mph7.4 kmh 30.14 in1020.7 mb - 0.00 in0.0 mm 0.02 in0.5 mm
07:10 AM 48.7°F9.3°C 42.5°F5.8°C 79% 1.2 mph SW1.9 kmh SW 5.8 mph9.3 kmh 30.14 in1020.7 mb - 0.00 in0.0 mm 0.02 in0.5 mm
07:00 AM 48.7°F9.3°C 42.5°F5.8°C 79% 3.5 mph S5.6 kmh S 8.1 mph13.0 kmh 30.13 in1020.3 mb - 0.00 in0.0 mm 0.02 in0.5 mm
06:50 AM 48.8°F9.3°C 42.6°F5.9°C 79% Calm Calm -- 30.13 in1020.3 mb - 0.00 in0.0 mm 0.02 in0.5 mm
06:40 AM 48.9°F9.4°C 42.7°F5.9°C 79% Calm Calm -- 30.12 in1020.0 mb - 0.00 in0.0 mm 0.02 in0.5 mm
06:30 AM 48.9°F9.4°C 42.7°F5.9°C 79% Calm Calm -- 30.12 in1020.0 mb - 0.00 in0.0 mm 0.02 in0.5 mm
06:20 AM 48.9°F9.4°C 42.7°F5.9°C 79% 2.3 mph SSW3.7 kmh SSW 3.5 mph5.6 kmh 30.12 in1020.0 mb - 0.00 in0.0 mm 0.02 in0.5 mm
06:10 AM 48.9°F9.4°C 42.7°F5.9°C 79% 3.5 mph S5.6 kmh S 9.2 mph14.8 kmh 30.12 in1020.0 mb - 0.00 in0.0 mm 0.02 in0.5 mm
06:00 AM 49.2°F9.6°C 42.9°F6.1°C 79% 3.5 mph SSW5.6 kmh SSW 8.1 mph13.0 kmh 30.11 in1019.6 mb - 0.00 in0.0 mm 0.02 in0.5 mm
05:50 AM 49.2°F9.6°C 43.0°F6.1°C 79% Calm Calm -- 30.11 in1019.6 mb - 0.00 in0.0 mm 0.02 in0.5 mm
05:40 AM 49.3°F9.6°C 43.1°F6.2°C 79% Calm Calm -- 30.11 in1019.6 mb - 0.00 in0.0 mm 0.02 in0.5 mm
05:30 AM 49.4°F9.7°C 43.2°F6.2°C 79% 2.3 mph S3.7 kmh S 8.1 mph13.0 kmh 30.11 in1019.6 mb - 0.00 in0.0 mm 0.02 in0.5 mm
05:20 AM 49.6°F9.8°C 43.4°F6.3°C 79% 4.6 mph SW7.4 kmh SW 8.1 mph13.0 kmh 30.11 in1019.6 mb - 0.00 in0.0 mm 0.02 in0.5 mm
05:10 AM 49.7°F9.8°C 43.5°F6.4°C 79% 1.2 mph SSW1.9 kmh SSW 5.8 mph9.3 kmh 30.11 in1019.6 mb - 0.00 in0.0 mm 0.02 in0.5 mm
05:00 AM 49.6°F9.8°C 43.7°F6.5°C 80% 4.6 mph S7.4 kmh S 8.1 mph13.0 kmh 30.11 in1019.6 mb - 0.00 in0.0 mm 0.02 in0.5 mm
04:50 AM 49.6°F9.8°C 43.7°F6.5°C 80% 4.6 mph SSW7.4 kmh SSW 6.9 mph11.1 kmh 30.10 in1019.3 mb - 0.00 in0.0 mm 0.02 in0.5 mm
04:40 AM 49.4°F9.7°C 43.5°F6.4°C 80% 3.5 mph S5.6 kmh S 9.2 mph14.8 kmh 30.10 in1019.3 mb - 0.00 in0.0 mm 0.02 in0.5 mm
04:30 AM 49.3°F9.6°C 43.4°F6.3°C 80% 3.5 mph S5.6 kmh S 3.5 mph5.6 kmh 30.10 in1019.3 mb - 0.00 in0.0 mm 0.02 in0.5 mm
04:20 AM 49.3°F9.6°C 43.4°F6.3°C 80% Calm Calm -- 30.09 in1019.0 mb - 0.00 in0.0 mm 0.02 in0.5 mm
04:10 AM 49.4°F9.7°C 43.5°F6.4°C 80% Calm Calm -- 30.09 in1019.0 mb - 0.00 in0.0 mm 0.02 in0.5 mm
04:00 AM 49.4°F9.7°C 43.5°F6.4°C 80% 5.8 mph S9.3 kmh S 11.5 mph18.5 kmh 30.09 in1019.0 mb - 0.00 in0.0 mm 0.02 in0.5 mm
03:50 AM 49.8°F9.9°C 43.9°F6.6°C 80% 1.2 mph S1.9 kmh S 8.1 mph13.0 kmh 30.08 in1018.6 mb - 0.00 in0.0 mm 0.02 in0.5 mm
03:40 AM 50.3°F10.2°C 44.4°F6.9°C 80% Calm Calm 3.5 mph5.6 kmh 30.08 in1018.6 mb - 0.00 in0.0 mm 0.02 in0.5 mm
03:30 AM 50.5°F10.3°C 44.6°F7.0°C 80% Calm Calm -- 30.08 in1018.6 mb - 0.00 in0.0 mm 0.02 in0.5 mm
03:20 AM 50.6°F10.3°C 44.6°F7.0°C 80% 1.2 mph SSW1.9 kmh SSW -- 30.08 in1018.6 mb - 0.00 in0.0 mm 0.02 in0.5 mm
03:10 AM 50.5°F10.3°C 44.6°F7.0°C 80% 6.9 mph S11.1 kmh S 10.4 mph16.7 kmh 30.09 in1019.0 mb - 0.00 in0.0 mm 0.02 in0.5 mm
03:00 AM 50.5°F10.3°C 44.6°F7.0°C 80% 2.3 mph SSW3.7 kmh SSW 3.5 mph5.6 kmh 30.08 in1018.6 mb - 0.00 in0.0 mm 0.02 in0.5 mm
02:50 AM 50.8°F10.4°C 44.9°F7.2°C 80% 4.6 mph SSW7.4 kmh SSW 4.6 mph7.4 kmh 30.08 in1018.6 mb - 0.00 in0.0 mm 0.02 in0.5 mm
02:40 AM 51.1°F10.6°C 45.1°F7.3°C 80% 1.2 mph SSW1.9 kmh SSW 2.3 mph3.7 kmh 30.08 in1018.6 mb - 0.00 in0.0 mm 0.02 in0.5 mm
02:30 AM 51.3°F10.7°C 45.3°F7.4°C 80% Calm Calm -- 30.09 in1019.0 mb - 0.00 in0.0 mm 0.02 in0.5 mm
02:20 AM 51.4°F10.8°C 45.4°F7.4°C 80% 2.3 mph S3.7 kmh S 3.5 mph5.6 kmh 30.09 in1019.0 mb - 0.01 in0.3 mm 0.02 in0.5 mm
02:10 AM 51.5°F10.8°C 45.5°F7.5°C 80% 5.8 mph S9.3 kmh S 10.4 mph16.7 kmh 30.09 in1019.0 mb - 0.00 in0.0 mm 0.01 in0.3 mm
02:00 AM 51.5°F10.8°C 45.5°F7.5°C 80% 1.2 mph SSW1.9 kmh SSW 4.6 mph7.4 kmh 30.09 in1019.0 mb - 0.01 in0.3 mm 0.01 in0.3 mm
01:50 AM 51.4°F10.8°C 45.8°F7.7°C 81% 1.2 mph S1.9 kmh S 4.6 mph7.4 kmh 30.09 in1019.0 mb - 0.01 in0.3 mm 0.01 in0.3 mm
01:40 AM 51.5°F10.8°C 45.8°F7.7°C 81% 1.2 mph SSW1.9 kmh SSW 3.5 mph5.6 kmh 30.08 in1018.6 mb - 0.00 in0.0 mm 0.00 in0.0 mm
01:30 AM 51.6°F10.9°C 45.6°F7.6°C 80% Calm Calm -- 30.08 in1018.6 mb - 0.00 in0.0 mm 0.00 in0.0 mm
01:20 AM 51.5°F10.8°C 45.5°F7.5°C 80% Calm Calm -- 30.08 in1018.6 mb - 0.00 in0.0 mm 0.00 in0.0 mm
01:10 AM 51.5°F10.8°C 45.5°F7.5°C 80% 3.5 mph S5.6 kmh S 4.6 mph7.4 kmh 30.08 in1018.6 mb - 0.00 in0.0 mm 0.00 in0.0 mm
01:00 AM 51.5°F10.8°C 45.5°F7.5°C 80% 3.5 mph S5.6 kmh S 8.1 mph13.0 kmh 30.07 in1018.3 mb - 0.00 in0.0 mm 0.00 in0.0 mm
12:50 AM 51.5°F10.8°C 45.5°F7.5°C 80% Calm Calm -- 30.07 in1018.3 mb - 0.00 in0.0 mm 0.00 in0.0 mm
12:40 AM 51.5°F10.8°C 45.5°F7.5°C 80% Calm Calm -- 30.07 in1018.3 mb - 0.00 in0.0 mm 0.00 in0.0 mm
12:30 AM 51.5°F10.8°C 45.5°F7.5°C 80% 1.2 mph SW1.9 kmh SW -- 30.06 in1017.9 mb - 0.00 in0.0 mm 0.00 in0.0 mm
12:20 AM 51.5°F10.8°C 45.5°F7.5°C 80% 3.5 mph SSW5.6 kmh SSW 9.2 mph14.8 kmh 30.06 in1017.9 mb - 0.00 in0.0 mm 0.00 in0.0 mm
12:10 AM 51.6°F10.9°C 45.6°F7.6°C 80% 4.6 mph S7.4 kmh S 11.5 mph18.5 kmh 30.06 in1017.9 mb - 0.00 in0.0 mm 0.00 in0.0 mm
12:00 AM 51.6°F10.9°C 45.6°F7.6°C 80% 2.3 mph S3.7 kmh S 8.1 mph13.0 kmh 30.06 in1017.9 mb - 0.00 in0.0 mm 0.00 in0.0 mm